Time;durP1;ratioP1;P1;durP2;ratioP2;P2;SDS_P1;SDS_P2;PMS_P1;PMS_P2;Temp;Humidity;BMP_temperature;BMP_pressure;BME280_temperature;BME280_humidity;BME280_pressure;Samples;Min_cycle;Max_cycle;Signal;HPM_P1;HPM_P2
2021/05/13 00:01:20;;;;;;;17.73;5.80;;;;;;;;;;5021032;28;20061;-74
2021/05/13 00:03:47;;;;;;;11.65;4.60;;;;;;;;;;5022463;28;20107;-74
2021/05/13 00:06:13;;;;;;;9.85;4.28;;;;;;;;;;5001886;28;20144;-74
2021/05/13 00:08:40;;;;;;;15.20;5.45;;;;;;;;;;5026405;28;20151;-74
2021/05/13 00:11:07;;;;;;;19.17;6.60;;;;;;;;;;5027642;28;20112;-74
2021/05/13 00:13:36;;;;;;;16.23;4.78;;;;;;;;;;5026941;28;20041;-74
2021/05/13 00:16:03;;;;;;;11.98;3.95;;;;;;;;;;5025936;28;20053;-74
2021/05/13 00:18:30;;;;;;;4.90;2.25;;;;;;;;;;5026579;28;20053;-74
2021/05/13 00:20:57;;;;;;;7.90;2.97;;;;;;;;;;5024252;28;20488;-74
2021/05/13 00:23:24;;;;;;;7.22;2.65;;;;;;;;;;5027026;28;20049;-74
2021/05/13 00:25:51;;;;;;;10.38;3.25;;;;;;;;;;5009268;28;20041;-74
2021/05/13 00:28:21;;;;;;;8.68;4.00;;;;;;;;;;5026060;28;20069;-74
2021/05/13 00:30:48;;;;;;;11.82;4.38;;;;;;;;;;5009998;28;20065;-74
2021/05/13 00:33:15;;;;;;;9.82;3.50;;;;;;;;;;5022814;28;20061;-74
2021/05/13 00:35:41;;;;;;;4.43;2.53;;;;;;;;;;5026573;28;20050;-74
2021/05/13 00:38:07;;;;;;;8.88;2.95;;;;;;;;;;5021989;28;20042;-74
2021/05/13 00:40:34;;;;;;;10.80;3.80;;;;;;;;;;5007560;28;20456;-74
2021/05/13 00:43:01;;;;;;;14.43;4.38;;;;;;;;;;5024028;28;20060;-74
2021/05/13 00:45:28;;;;;;;10.10;4.03;;;;;;;;;;5023989;28;20037;-74
2021/05/13 00:50:22;;;;;;;10.57;4.35;;;;;;;;;;5026035;28;20037;-74
2021/05/13 00:52:48;;;;;;;14.85;5.03;;;;;;;;;;5023680;28;20073;-74
2021/05/13 00:55:15;;;;;;;11.70;4.93;;;;;;;;;;5025895;28;20048;-74
2021/05/13 00:57:45;;;;;;;16.15;5.10;;;;;;;;;;5025710;28;20184;-74
2021/05/13 01:00:32;;;;;;;12.93;5.43;;;;;;;;;;5023023;28;20072;-74
2021/05/13 01:02:58;;;;;;;9.43;3.45;;;;;;;;;;4991607;28;20117;-74
2021/05/13 01:05:26;;;;;;;10.65;4.45;;;;;;;;;;5021419;28;20057;-74
2021/05/13 01:07:52;;;;;;;8.10;3.10;;;;;;;;;;5024517;28;20053;-74
2021/05/13 01:10:18;;;;;;;7.25;2.58;;;;;;;;;;5024038;28;20048;-74
2021/05/13 01:12:46;;;;;;;7.43;3.10;;;;;;;;;;5009607;28;20099;-76
2021/05/13 01:15:24;;;;;;;6.80;2.53;;;;;;;;;;5024143;28;21602;-76
2021/05/13 01:18:00;;;;;;;9.77;2.80;;;;;;;;;;5024176;28;20060;-74
2021/05/13 01:20:28;;;;;;;10.25;3.00;;;;;;;;;;5024338;28;20061;-74
2021/05/13 01:22:55;;;;;;;6.78;2.55;;;;;;;;;;5025014;28;20151;-74
2021/05/13 01:25:22;;;;;;;9.43;3.45;;;;;;;;;;5024431;28;20366;-74
2021/05/13 01:27:48;;;;;;;10.23;3.70;;;;;;;;;;5021741;28;20045;-74
2021/05/13 01:30:16;;;;;;;11.38;3.92;;;;;;;;;;5027152;28;20073;-74
2021/05/13 01:32:43;;;;;;;16.63;5.32;;;;;;;;;;5022091;28;20053;-74
2021/05/13 01:35:11;;;;;;;16.63;5.47;;;;;;;;;;5022208;28;20478;-74
2021/05/13 01:37:37;;;;;;;15.23;5.53;;;;;;;;;;5023682;28;20456;-74
2021/05/13 01:40:04;;;;;;;13.40;5.80;;;;;;;;;;5023687;28;20039;-74
2021/05/13 01:42:31;;;;;;;15.90;5.68;;;;;;;;;;5006192;28;20049;-74
2021/05/13 01:44:57;;;;;;;15.13;5.07;;;;;;;;;;5025063;28;20515;-74
2021/05/13 01:47:23;;;;;;;13.07;5.40;;;;;;;;;;5005354;28;20128;-74
2021/05/13 01:49:50;;;;;;;10.20;5.55;;;;;;;;;;5024653;28;20461;-74
2021/05/13 01:52:16;;;;;;;10.50;5.07;;;;;;;;;;5025724;28;20429;-74
2021/05/13 01:54:42;;;;;;;15.57;5.65;;;;;;;;;;5008510;28;20040;-74
2021/05/13 01:57:09;;;;;;;12.77;5.80;;;;;;;;;;5022996;28;20041;-74
2021/05/13 01:59:36;;;;;;;16.17;5.85;;;;;;;;;;5023899;28;20107;-74
2021/05/13 02:02:03;;;;;;;14.65;6.72;;;;;;;;;;5022574;28;20056;-74
2021/05/13 02:04:30;;;;;;;15.52;6.03;;;;;;;;;;5018114;28;20573;-74
2021/05/13 02:06:56;;;;;;;19.85;8.40;;;;;;;;;;5025118;28;20061;-74
2021/05/13 02:09:22;;;;;;;15.82;6.07;;;;;;;;;;5023571;28;20064;-74
2021/05/13 02:11:48;;;;;;;19.15;7.93;;;;;;;;;;5023725;28;20037;-74
2021/05/13 02:14:15;;;;;;;15.73;7.20;;;;;;;;;;5025005;28;20777;-74
2021/05/13 02:16:42;;;;;;;23.63;8.07;;;;;;;;;;5024701;28;20133;-74
2021/05/13 02:19:08;;;;;;;20.88;8.93;;;;;;;;;;5023370;28;20335;-74
2021/05/13 02:21:34;;;;;;;16.73;7.43;;;;;;;;;;5024287;28;20037;-74
2021/05/13 02:24:00;;;;;;;13.90;6.25;;;;;;;;;;5024318;28;20050;-74
2021/05/13 02:26:27;;;;;;;17.88;6.88;;;;;;;;;;5022822;28;20055;-74
2021/05/13 02:28:53;;;;;;;20.80;7.43;;;;;;;;;;5023551;28;20073;-74
2021/05/13 02:31:19;;;;;;;18.42;7.35;;;;;;;;;;5023997;28;20038;-74
2021/05/13 02:33:46;;;;;;;26.35;8.13;;;;;;;;;;5024858;28;20393;-74
2021/05/13 02:36:12;;;;;;;21.33;7.18;;;;;;;;;;5024549;28;20041;-74
2021/05/13 02:38:39;;;;;;;22.05;8.23;;;;;;;;;;5009083;28;20045;-74
2021/05/13 02:41:05;;;;;;;18.67;6.68;;;;;;;;;;5023671;28;20129;-75
2021/05/13 02:43:31;;;;;;;18.10;7.53;;;;;;;;;;5020931;28;20052;-74
2021/05/13 02:45:57;;;;;;;23.67;8.30;;;;;;;;;;5024314;28;20038;-74
2021/05/13 02:48:24;;;;;;;28.45;9.20;;;;;;;;;;5024134;28;20084;-74
2021/05/13 02:50:50;;;;;;;25.63;8.30;;;;;;;;;;5023363;28;20128;-74
2021/05/13 02:53:16;;;;;;;26.13;9.43;;;;;;;;;;5025346;28;20157;-74
2021/05/13 02:55:43;;;;;;;26.08;8.95;;;;;;;;;;5022563;28;20196;-74
2021/05/13 02:58:09;;;;;;;22.17;8.68;;;;;;;;;;5024416;28;20037;-74
2021/05/13 03:00:49;;;;;;;19.83;8.60;;;;;;;;;;5022661;28;20045;-74
2021/05/13 03:03:15;;;;;;;18.98;7.75;;;;;;;;;;5019732;28;20052;-74
2021/05/13 03:05:41;;;;;;;18.25;7.55;;;;;;;;;;5019882;28;20039;-74
2021/05/13 03:08:10;;;;;;;20.02;8.57;;;;;;;;;;5023390;28;20060;-74
2021/05/13 03:10:43;;;;;;;21.20;8.85;;;;;;;;;;5023035;28;20041;-74
2021/05/13 03:13:11;;;;;;;;;;;;;;;;;;5023654;28;20072;-74
2021/05/13 03:15:37;;;;;;;22.40;9.32;;;;;;;;;;5023598;28;20036;-74
2021/05/13 03:18:05;;;;;;;17.77;9.02;;;;;;;;;;5022862;28;20125;-74
2021/05/13 03:20:36;;;;;;;22.63;8.77;;;;;;;;;;5024299;28;20095;-74
2021/05/13 03:23:03;;;;;;;22.40;9.05;;;;;;;;;;5023724;28;20046;-74
2021/05/13 03:25:33;;;;;;;21.45;9.95;;;;;;;;;;5022475;28;20496;-74
2021/05/13 03:28:09;;;;;;;18.85;9.25;;;;;;;;;;5022523;28;20383;-74
2021/05/13 03:30:37;;;;;;;29.80;10.88;;;;;;;;;;5023509;28;20184;-74
2021/05/13 03:33:04;;;;;;;19.63;9.20;;;;;;;;;;5022149;28;20042;-74
2021/05/13 03:35:31;;;;;;;24.00;10.27;;;;;;;;;;5003517;28;20046;-74
2021/05/13 03:38:06;;;;;;;24.77;10.80;;;;;;;;;;5023390;28;20144;-74
2021/05/13 03:40:32;;;;;;;24.25;11.02;;;;;;;;;;5024154;28;20038;-74
2021/05/13 03:42:59;;;;;;;25.90;10.82;;;;;;;;;;5027590;28;20053;-74
2021/05/13 03:45:26;;;;;;;24.20;10.25;;;;;;;;;;5026332;28;20428;-74
2021/05/13 03:47:52;;;;;;;19.35;9.93;;;;;;;;;;5025807;28;20463;-74
2021/05/13 03:50:19;;;;;;;24.90;11.27;;;;;;;;;;5027524;28;20041;-74
2021/05/13 03:52:45;;;;;;;24.95;10.73;;;;;;;;;;5027250;28;20049;-74
2021/05/13 03:55:12;;;;;;;21.30;9.98;;;;;;;;;;5027177;28;20925;-74
2021/05/13 03:57:39;;;;;;;22.52;9.93;;;;;;;;;;5026416;28;20436;-74
2021/05/13 04:00:09;;;;;;;20.40;9.85;;;;;;;;;;5024815;28;20056;-74
2021/05/13 04:02:36;;;;;;;15.35;9.02;;;;;;;;;;5021832;28;20449;-74
2021/05/13 04:05:03;;;;;;;17.70;9.00;;;;;;;;;;5021274;28;20054;-74
2021/05/13 04:07:30;;;;;;;16.15;8.00;;;;;;;;;;5021101;28;20069;-74
2021/05/13 04:09:57;;;;;;;16.13;7.97;;;;;;;;;;5027224;28;20132;-74
2021/05/13 04:12:24;;;;;;;15.30;7.68;;;;;;;;;;5027237;28;20124;-74
2021/05/13 04:14:51;;;;;;;16.83;7.68;;;;;;;;;;5024716;28;20064;-74
2021/05/13 04:17:18;;;;;;;15.02;7.10;;;;;;;;;;5027830;28;20053;-74
2021/05/13 04:19:44;;;;;;;17.52;7.82;;;;;;;;;;5025740;28;20061;-74
2021/05/13 04:22:12;;;;;;;12.98;6.75;;;;;;;;;;5007542;28;20075;-74
2021/05/13 04:24:38;;;;;;;22.58;8.18;;;;;;;;;;5003085;28;20052;-74
2021/05/13 04:27:05;;;;;;;18.63;7.53;;;;;;;;;;5025864;28;20060;-74
2021/05/13 04:29:31;;;;;;;14.82;6.40;;;;;;;;;;5024464;28;20045;-74
2021/05/13 04:31:58;;;;;;;17.67;7.82;;;;;;;;;;5027380;28;20048;-74
2021/05/13 04:34:24;;;;;;;19.75;7.38;;;;;;;;;;5025668;28;20176;-74
2021/05/13 04:36:51;;;;;;;23.35;8.30;;;;;;;;;;5025810;28;20501;-74
2021/05/13 04:39:17;;;;;;;11.35;5.78;;;;;;;;;;5026745;28;20049;-74
2021/05/13 04:41:44;;;;;;;16.40;6.75;;;;;;;;;;5021399;28;20424;-74
2021/05/13 04:44:11;;;;;;;16.00;6.28;;;;;;;;;;5027728;28;20056;-74
2021/05/13 04:46:38;;;;;;;17.40;7.03;;;;;;;;;;5025043;28;20132;-74
2021/05/13 04:51:37;;;;;;;21.48;8.07;;;;;;;;;;5025339;28;20059;-74
2021/05/13 04:54:04;;;;;;;18.77;7.50;;;;;;;;;;4993805;28;20065;-74
2021/05/13 04:56:31;;;;;;;16.73;8.10;;;;;;;;;;5006832;28;21748;-74
2021/05/13 04:58:58;;;;;;;18.80;7.32;;;;;;;;;;5024601;28;20082;-74
2021/05/13 05:01:24;;;;;;;16.45;7.43;;;;;;;;;;5027015;28;20038;-74
2021/05/13 05:03:53;;;;;;;15.57;7.68;;;;;;;;;;5023423;28;20060;-74
2021/05/13 05:06:19;;;;;;;21.05;8.30;;;;;;;;;;5025466;28;20038;-74
2021/05/13 05:08:46;;;;;;;25.38;8.75;;;;;;;;;;5026789;28;20037;-74
2021/05/13 05:11:13;;;;;;;21.88;8.20;;;;;;;;;;5024853;28;20165;-74
2021/05/13 05:13:39;;;;;;;24.05;8.05;;;;;;;;;;5024191;28;20082;-74
2021/05/13 05:16:06;;;;;;;19.45;8.98;;;;;;;;;;5021086;28;20054;-74
2021/05/13 05:18:32;;;;;;;20.13;7.75;;;;;;;;;;5008544;28;20127;-74
2021/05/13 05:20:58;;;;;;;16.73;7.30;;;;;;;;;;5023551;28;20176;-74
2021/05/13 05:23:27;;;;;;;24.75;8.25;;;;;;;;;;5026568;28;20060;-74
2021/05/13 05:25:53;;;;;;;22.30;8.60;;;;;;;;;;5023921;28;20048;-74
2021/05/13 05:28:20;;;;;;;20.58;8.57;;;;;;;;;;5026395;28;20068;-74
2021/05/13 05:30:46;;;;;;;20.30;7.82;;;;;;;;;;5027072;28;20064;-74
2021/05/13 05:33:13;;;;;;;22.58;8.68;;;;;;;;;;5021225;28;20926;-74
2021/05/13 05:35:39;;;;;;;21.92;8.68;;;;;;;;;;5025187;28;20064;-74
2021/05/13 05:38:08;;;;;;;21.27;9.73;;;;;;;;;;5024306;28;20042;-74
2021/05/13 05:40:34;;;;;;;21.17;8.65;;;;;;;;;;5024160;28;20051;-74
2021/05/13 05:43:03;;;;;;;21.05;8.52;;;;;;;;;;5026582;28;20100;-74
2021/05/13 05:45:29;;;;;;;24.75;8.18;;;;;;;;;;5020397;28;20489;-74
2021/05/13 05:47:59;;;;;;;22.98;7.95;;;;;;;;;;5025162;28;20052;-74
2021/05/13 05:50:33;;;;;;;22.40;7.95;;;;;;;;;;5024185;28;20052;-74
2021/05/13 05:53:01;;;;;;;26.10;8.88;;;;;;;;;;5021869;28;20132;-74
2021/05/13 05:55:31;;;;;;;20.92;7.63;;;;;;;;;;5023956;28;20113;-74
2021/05/13 05:57:58;;;;;;;21.38;7.85;;;;;;;;;;5025455;28;20454;-74
2021/05/13 06:00:24;;;;;;;25.35;7.18;;;;;;;;;;5024331;28;20037;-73
2021/05/13 06:02:50;;;;;;;20.15;7.47;;;;;;;;;;5004667;28;20049;-73
2021/05/13 06:05:17;;;;;;;15.10;7.13;;;;;;;;;;5023650;28;20095;-74
2021/05/13 06:07:44;;;;;;;20.65;7.18;;;;;;;;;;5023119;28;20029;-79
2021/05/13 06:10:12;;;;;;;19.08;6.88;;;;;;;;;;5024528;28;20136;-74
2021/05/13 06:12:39;;;;;;;22.17;8.15;;;;;;;;;;5020481;28;20504;-75
2021/05/13 06:15:07;;;;;;;29.92;8.15;;;;;;;;;;5015457;28;20088;-74
2021/05/13 06:17:33;;;;;;;16.25;7.03;;;;;;;;;;5003235;28;20057;-74
2021/05/13 06:20:01;;;;;;;19.40;6.55;;;;;;;;;;5024159;28;20374;-74
2021/05/13 06:22:32;;;;;;;29.27;7.20;;;;;;;;;;5024862;28;20037;-74
2021/05/13 06:25:00;;;;;;;17.83;6.45;;;;;;;;;;5026140;28;20544;-74
2021/05/13 06:27:28;;;;;;;16.58;6.13;;;;;;;;;;5024237;28;20403;-75
2021/05/13 06:29:57;;;;;;;15.68;5.93;;;;;;;;;;5024423;28;20041;-74
2021/05/13 06:32:24;;;;;;;14.70;6.10;;;;;;;;;;5024921;28;20120;-75
2021/05/13 06:34:51;;;;;;;18.02;6.28;;;;;;;;;;5022813;28;20393;-75
2021/05/13 06:37:17;;;;;;;16.60;6.15;;;;;;;;;;5003475;28;20057;-74
2021/05/13 06:39:44;;;;;;;17.20;5.60;;;;;;;;;;5023417;28;20045;-74
2021/05/13 06:42:17;;;;;;;24.80;5.78;;;;;;;;;;5024090;28;20493;-75
2021/05/13 06:44:45;;;;;;;19.35;6.47;;;;;;;;;;5024479;28;20053;-76
2021/05/13 06:47:12;;;;;;;22.60;6.72;;;;;;;;;;5027089;28;20069;-75
2021/05/13 06:49:39;;;;;;;15.13;5.53;;;;;;;;;;5024708;28;20129;-75
2021/05/13 06:52:15;;;;;;;17.00;5.75;;;;;;;;;;5025763;28;20057;-75
2021/05/13 06:54:42;;;;;;;16.67;5.90;;;;;;;;;;5028062;28;20084;-75
2021/05/13 06:57:12;;;;;;;15.15;5.45;;;;;;;;;;5019496;28;20042;-75
2021/05/13 06:59:41;;;;;;;14.95;5.65;;;;;;;;;;5019205;28;20131;-75
2021/05/13 07:02:09;;;;;;;17.50;5.97;;;;;;;;;;5022334;28;20049;-75
2021/05/13 07:04:41;;;;;;;20.13;7.00;;;;;;;;;;5026436;28;20423;-75
2021/05/13 07:07:07;;;;;;;12.57;4.70;;;;;;;;;;5006242;28;20108;-75
2021/05/13 07:09:34;;;;;;;16.48;5.53;;;;;;;;;;5024231;28;20057;-75
2021/05/13 07:12:01;;;;;;;15.77;5.80;;;;;;;;;;5028256;28;20064;-71
2021/05/13 07:14:27;;;;;;;21.77;7.13;;;;;;;;;;5024918;28;20445;-72
2021/05/13 07:16:53;;;;;;;22.95;6.97;;;;;;;;;;5028630;28;20060;-71
2021/05/13 07:19:20;;;;;;;15.05;5.45;;;;;;;;;;5030655;28;20156;-70
2021/05/13 07:21:46;;;;;;;16.98;5.55;;;;;;;;;;5030788;28;20049;-75
2021/05/13 07:24:13;;;;;;;19.40;6.28;;;;;;;;;;5011692;28;20046;-71
2021/05/13 07:26:40;;;;;;;19.88;5.60;;;;;;;;;;5031577;28;20394;-71
2021/05/13 07:29:08;;;;;;;14.38;4.95;;;;;;;;;;5030179;28;20049;-71
2021/05/13 07:31:34;;;;;;;16.98;5.68;;;;;;;;;;5030153;28;20426;-71
2021/05/13 07:34:00;;;;;;;16.67;5.32;;;;;;;;;;5030826;28;20038;-72
2021/05/13 07:36:28;;;;;;;12.80;4.70;;;;;;;;;;5029588;28;20401;-71
2021/05/13 07:38:55;;;;;;;12.38;4.90;;;;;;;;;;5030582;28;20076;-72
2021/05/13 07:41:22;;;;;;;19.25;6.10;;;;;;;;;;5029468;28;20123;-74
2021/05/13 07:43:51;;;;;;;17.15;4.65;;;;;;;;;;5030043;28;20046;-73
2021/05/13 07:46:20;;;;;;;13.43;3.65;;;;;;;;;;5031283;28;20040;-72
2021/05/13 07:48:48;;;;;;;14.15;3.88;;;;;;;;;;5030387;28;20033;-73
2021/05/13 07:51:15;;;;;;;11.63;4.35;;;;;;;;;;5030146;28;20049;-72
2021/05/13 07:53:42;;;;;;;19.08;4.82;;;;;;;;;;5030509;28;20159;-72
2021/05/13 07:56:08;;;;;;;13.45;4.22;;;;;;;;;;5031511;28;20104;-72
2021/05/13 07:58:36;;;;;;;10.77;3.97;;;;;;;;;;4995985;28;20435;-72
2021/05/13 08:01:03;;;;;;;11.43;2.88;;;;;;;;;;5030668;28;20059;-70
2021/05/13 08:03:29;;;;;;;13.98;4.47;;;;;;;;;;5030917;28;20445;-70
2021/05/13 08:05:55;;;;;;;15.02;4.22;;;;;;;;;;5030550;28;20360;-70
2021/05/13 08:08:21;;;;;;;13.85;4.43;;;;;;;;;;5030929;28;20509;-70
2021/05/13 08:10:48;;;;;;;13.57;3.78;;;;;;;;;;5031040;28;20124;-70
2021/05/13 08:13:16;;;;;;;11.00;2.80;;;;;;;;;;5030365;28;20049;-71
2021/05/13 08:15:42;;;;;;;10.43;2.30;;;;;;;;;;5031164;28;20057;-70
2021/05/13 08:18:08;;;;;;;9.25;1.92;;;;;;;;;;5030685;28;20053;-70
2021/05/13 08:20:35;;;;;;;9.65;2.70;;;;;;;;;;5030482;28;20112;-70
2021/05/13 08:23:01;;;;;;;7.47;2.13;;;;;;;;;;5012795;28;20084;-70
2021/05/13 08:25:27;;;;;;;14.15;3.20;;;;;;;;;;5030672;28;20041;-70
2021/05/13 08:27:53;;;;;;;16.30;4.35;;;;;;;;;;5029438;28;20040;-70
2021/05/13 08:30:20;;;;;;;13.45;3.90;;;;;;;;;;5030236;28;20042;-69
2021/05/13 08:32:47;;;;;;;13.60;3.63;;;;;;;;;;5030928;28;20037;-69
2021/05/13 08:35:13;;;;;;;13.65;4.38;;;;;;;;;;5028760;28;20203;-69
2021/05/13 08:37:40;;;;;;;14.60;3.53;;;;;;;;;;5008899;28;20489;-70
2021/05/13 08:40:07;;;;;;;10.55;3.17;;;;;;;;;;5009920;28;20449;-70
2021/05/13 08:42:34;;;;;;;10.98;3.00;;;;;;;;;;5029700;28;20136;-70
2021/05/13 08:45:01;;;;;;;9.82;3.22;;;;;;;;;;5031956;28;20214;-71
2021/05/13 08:47:27;;;;;;;10.23;2.85;;;;;;;;;;5028956;28;20076;-70
2021/05/13 08:49:53;;;;;;;12.32;2.90;;;;;;;;;;5030312;28;20048;-70
2021/05/13 08:52:21;;;;;;;10.65;2.25;;;;;;;;;;5023845;28;20116;-70
2021/05/13 08:54:56;;;;;;;9.88;2.00;;;;;;;;;;5028810;28;20430;-70
2021/05/13 08:57:22;;;;;;;9.52;1.83;;;;;;;;;;5026865;28;20046;-70
2021/05/13 08:59:49;;;;;;;8.75;1.77;;;;;;;;;;5012276;28;20041;-70
2021/05/13 09:02:16;;;;;;;8.10;1.73;;;;;;;;;;5029249;28;20037;-70
2021/05/13 09:04:45;;;;;;;6.88;1.52;;;;;;;;;;5028340;28;20076;-70
2021/05/13 09:07:15;;;;;;;6.50;2.00;;;;;;;;;;5026181;28;20045;-70
2021/05/13 09:10:02;;;;;;;6.28;1.42;;;;;;;;;;5027936;28;20132;-70
2021/05/13 09:12:30;;;;;;;4.97;1.30;;;;;;;;;;5029570;28;20045;-70
2021/05/13 09:15:01;;;;;;;13.35;1.67;;;;;;;;;;5009273;28;20049;-70
2021/05/13 09:17:28;;;;;;;6.13;1.65;;;;;;;;;;5026495;28;20424;-70
2021/05/13 09:19:55;;;;;;;7.72;1.50;;;;;;;;;;5025446;28;20037;-70
2021/05/13 09:22:23;;;;;;;6.72;1.17;;;;;;;;;;5030043;28;20045;-69
2021/05/13 09:24:52;;;;;;;6.13;1.63;;;;;;;;;;5025548;28;20056;-69
2021/05/13 09:27:21;;;;;;;9.55;1.67;;;;;;;;;;5012023;28;20057;-70
2021/05/13 09:29:47;;;;;;;6.15;1.45;;;;;;;;;;5024607;28;20068;-70
2021/05/13 09:32:15;;;;;;;4.00;1.17;;;;;;;;;;5029375;28;20190;-70
2021/05/13 09:34:41;;;;;;;8.02;2.05;;;;;;;;;;5030245;28;20526;-70
2021/05/13 09:37:08;;;;;;;4.88;1.65;;;;;;;;;;5029822;28;20124;-70
2021/05/13 09:39:34;;;;;;;4.78;1.00;;;;;;;;;;5029234;28;20042;-70
2021/05/13 09:42:01;;;;;;;2.88;0.80;;;;;;;;;;5027977;28;20056;-70
2021/05/13 09:44:32;;;;;;;6.75;1.45;;;;;;;;;;5026322;28;20060;-70
2021/05/13 09:47:11;;;;;;;4.25;1.25;;;;;;;;;;5011170;28;20046;-70
2021/05/13 09:49:52;;;;;;;4.30;0.98;;;;;;;;;;5027195;28;20485;-70
2021/05/13 09:52:39;;;;;;;8.05;2.47;;;;;;;;;;5023514;28;20052;-70
2021/05/13 09:55:11;;;;;;;4.45;1.40;;;;;;;;;;5027317;28;20041;-70
2021/05/13 09:57:37;;;;;;;4.30;1.13;;;;;;;;;;5025201;28;20055;-71
2021/05/13 10:00:05;;;;;;;7.95;2.85;;;;;;;;;;5029175;28;20068;-70
2021/05/13 10:02:32;;;;;;;6.60;1.33;;;;;;;;;;5026047;28;20137;-71
2021/05/13 10:04:59;;;;;;;4.93;1.77;;;;;;;;;;5010262;28;20477;-70
2021/05/13 10:07:27;;;;;;;5.70;1.30;;;;;;;;;;5023764;28;20045;-71
2021/05/13 10:09:54;;;;;;;5.55;1.13;;;;;;;;;;5012100;28;20453;-71
2021/05/13 10:12:20;;;;;;;6.05;1.13;;;;;;;;;;5028754;28;20492;-70
2021/05/13 10:14:50;;;;;;;5.65;1.10;;;;;;;;;;5029765;28;20037;-71
2021/05/13 10:17:17;;;;;;;5.47;1.48;;;;;;;;;;5029636;28;20192;-70
2021/05/13 10:19:46;;;;;;;5.57;1.45;;;;;;;;;;5024547;28;20052;-71
2021/05/13 10:22:14;;;;;;;6.65;1.83;;;;;;;;;;5024991;28;20120;-71
2021/05/13 10:24:40;;;;;;;6.40;1.52;;;;;;;;;;5011151;28;20542;-71
2021/05/13 10:27:20;;;;;;;7.75;1.70;;;;;;;;;;5028749;28;20042;-71
2021/05/13 10:29:47;;;;;;;3.95;1.42;;;;;;;;;;5025271;28;20041;-70
2021/05/13 10:34:42;;;;;;;5.47;1.42;;;;;;;;;;5024316;28;20103;-71
2021/05/13 10:37:09;;;;;;;5.32;1.40;;;;;;;;;;5025439;28;20485;-71
2021/05/13 10:39:36;;;;;;;9.32;2.10;;;;;;;;;;5009224;28;20061;-71
2021/05/13 10:42:21;;;;;;;6.00;1.80;;;;;;;;;;5025591;28;20045;-71
2021/05/13 10:44:47;;;;;;;8.27;1.77;;;;;;;;;;5025376;28;20393;-71
2021/05/13 10:47:26;;;;;;;5.97;1.80;;;;;;;;;;5024662;28;20099;-71
2021/05/13 10:49:53;;;;;;;5.43;1.95;;;;;;;;;;5027535;28;20063;-73
2021/05/13 10:52:41;;;;;;;6.88;2.65;;;;;;;;;;5028446;28;20112;-73
2021/05/13 10:55:09;;;;;;;6.60;2.10;;;;;;;;;;5028421;28;20099;-73
2021/05/13 10:57:46;;;;;;;5.05;1.83;;;;;;;;;;5015502;28;20038;-73
2021/05/13 11:00:24;;;;;;;6.07;1.63;;;;;;;;;;5030399;28;20038;-73
2021/05/13 11:02:51;;;;;;;6.93;1.73;;;;;;;;;;5029329;28;20060;-72
2021/05/13 11:05:30;;;;;;;4.30;1.27;;;;;;;;;;5029661;28;20037;-72
2021/05/13 11:08:04;;;;;;;3.97;1.40;;;;;;;;;;5031163;28;20047;-72
2021/05/13 11:10:49;;;;;;;4.82;1.52;;;;;;;;;;5028367;28;20065;-72
2021/05/13 11:13:16;;;;;;;4.78;1.30;;;;;;;;;;5029545;28;20049;-72
2021/05/13 11:15:46;;;;;;;5.47;1.70;;;;;;;;;;5030026;28;20126;-72
2021/05/13 11:18:14;;;;;;;4.90;1.90;;;;;;;;;;5030090;28;20029;-72
2021/05/13 11:20:48;;;;;;;4.82;1.67;;;;;;;;;;5014133;28;20489;-72
2021/05/13 11:23:21;;;;;;;6.63;2.15;;;;;;;;;;5013845;28;20442;-72
2021/05/13 11:25:52;;;;;;;5.27;2.10;;;;;;;;;;5030590;28;20100;-73
2021/05/13 11:28:19;;;;;;;7.25;1.67;;;;;;;;;;5031209;28;20292;-72
2021/05/13 11:30:46;;;;;;;6.53;1.95;;;;;;;;;;5030659;28;20045;-72
2021/05/13 11:33:12;;;;;;;5.20;1.95;;;;;;;;;;5015259;28;20152;-72
2021/05/13 11:35:39;;;;;;;4.68;2.20;;;;;;;;;;5032043;28;20033;-72
2021/05/13 11:38:15;;;;;;;5.15;1.80;;;;;;;;;;5030966;28;20049;-72
2021/05/13 11:40:42;;;;;;;5.38;2.53;;;;;;;;;;5026875;28;20477;-72
2021/05/13 11:43:15;;;;;;;6.32;2.13;;;;;;;;;;5032377;28;20053;-72
2021/05/13 11:45:42;;;;;;;4.20;2.42;;;;;;;;;;5026143;28;20044;-72
2021/05/13 11:48:22;;;;;;;7.05;2.97;;;;;;;;;;5030123;28;20472;-72
2021/05/13 11:50:48;;;;;;;6.57;2.65;;;;;;;;;;5012860;28;20457;-72
2021/05/13 11:53:16;;;;;;;5.10;2.58;;;;;;;;;;5030446;28;20049;-72
2021/05/13 11:55:42;;;;;;;7.53;3.42;;;;;;;;;;5032062;28;20500;-72
2021/05/13 11:58:09;;;;;;;8.05;3.80;;;;;;;;;;5030131;28;20118;-72
2021/05/13 12:00:37;;;;;;;6.50;2.70;;;;;;;;;;5030497;28;20160;-73
2021/05/13 12:03:12;;;;;;;5.05;2.70;;;;;;;;;;5028944;28;20076;-72
2021/05/13 12:05:51;;;;;;;6.97;2.92;;;;;;;;;;5028432;28;20123;-72
2021/05/13 12:08:18;;;;;;;8.07;3.45;;;;;;;;;;5029128;28;20121;-73
2021/05/13 12:10:44;;;;;;;6.70;2.42;;;;;;;;;;5028473;28;20042;-72
2021/05/13 12:13:11;;;;;;;6.18;2.50;;;;;;;;;;5026576;28;20468;-72
2021/05/13 12:15:37;;;;;;;6.32;2.20;;;;;;;;;;5029192;28;20100;-73
2021/05/13 12:18:04;;;;;;;5.82;2.40;;;;;;;;;;5013691;28;20037;-72
2021/05/13 12:20:32;;;;;;;7.72;2.45;;;;;;;;;;5027857;28;20140;-72
2021/05/13 12:22:59;;;;;;;5.50;1.98;;;;;;;;;;5014133;28;20421;-73
2021/05/13 12:25:25;;;;;;;5.35;2.20;;;;;;;;;;5030467;28;20144;-72
2021/05/13 12:27:52;;;;;;;7.03;2.60;;;;;;;;;;5029790;28;20069;-73
2021/05/13 12:30:19;;;;;;;4.60;2.22;;;;;;;;;;5030200;28;20458;-72
2021/05/13 12:32:45;;;;;;;6.18;2.70;;;;;;;;;;5031569;28;20041;-73
2021/05/13 12:35:23;;;;;;;6.70;1.92;;;;;;;;;;5029805;28;20037;-72
2021/05/13 12:37:49;;;;;;;4.32;1.75;;;;;;;;;;5028161;28;20046;-72
2021/05/13 12:40:15;;;;;;;5.70;2.00;;;;;;;;;;5026464;28;20042;-73
2021/05/13 12:42:42;;;;;;;4.93;1.92;;;;;;;;;;5020836;28;20413;-73
2021/05/13 12:45:18;;;;;;;5.93;2.30;;;;;;;;;;5027851;28;20088;-73
2021/05/13 12:47:54;;;;;;;4.80;2.03;;;;;;;;;;5027105;28;20459;-73
2021/05/13 12:50:24;;;;;;;6.38;2.63;;;;;;;;;;5027823;28;20047;-72
2021/05/13 12:52:51;;;;;;;6.65;2.72;;;;;;;;;;5028096;28;20046;-73
2021/05/13 12:55:18;;;;;;;4.55;1.80;;;;;;;;;;5027771;28;20045;-73
2021/05/13 12:57:45;;;;;;;6.63;2.83;;;;;;;;;;5027562;28;20050;-72
2021/05/13 13:00:13;;;;;;;6.45;2.42;;;;;;;;;;5026220;28;20370;-73
2021/05/13 13:02:39;;;;;;;6.75;2.53;;;;;;;;;;5012068;28;20080;-72
2021/05/13 13:05:06;;;;;;;6.38;2.40;;;;;;;;;;5027984;28;20064;-72
2021/05/13 13:07:40;;;;;;;5.00;2.35;;;;;;;;;;5028844;28;20120;-72
2021/05/13 13:10:31;;;;;;;8.00;2.50;;;;;;;;;;5026535;28;20442;-73
2021/05/13 13:13:02;;;;;;;6.13;2.40;;;;;;;;;;5029265;28;20041;-73
2021/05/13 13:15:32;;;;;;;7.97;3.03;;;;;;;;;;5024427;28;20049;-72
2021/05/13 13:18:00;;;;;;;6.20;2.97;;;;;;;;;;5028228;28;20044;-73
2021/05/13 13:20:30;;;;;;;8.48;3.42;;;;;;;;;;5027775;28;20037;-72
2021/05/13 13:23:14;;;;;;;5.82;3.20;;;;;;;;;;5026500;28;20065;-72
2021/05/13 13:25:41;;;;;;;5.78;2.92;;;;;;;;;;5010339;28;20046;-73
2021/05/13 13:28:07;;;;;;;8.32;3.28;;;;;;;;;;5009718;28;20084;-72
2021/05/13 13:30:34;;;;;;;5.78;3.08;;;;;;;;;;5026121;28;20075;-73
2021/05/13 13:33:10;;;;;;;7.80;4.07;;;;;;;;;;5027438;28;20062;-72
2021/05/13 13:35:39;;;;;;;6.93;4.07;;;;;;;;;;5029424;28;20041;-73
2021/05/13 13:38:07;;;;;;;8.32;3.30;;;;;;;;;;5027439;28;20049;-73
2021/05/13 13:40:33;;;;;;;6.18;3.15;;;;;;;;;;5024050;28;20073;-73
2021/05/13 13:43:00;;;;;;;11.23;5.35;;;;;;;;;;5026883;28;20377;-73
2021/05/13 13:45:26;;;;;;;8.23;4.45;;;;;;;;;;5009586;28;20064;-72
2021/05/13 13:47:53;;;;;;;9.50;4.90;;;;;;;;;;5026967;28;20041;-72
2021/05/13 13:50:19;;;;;;;7.40;3.58;;;;;;;;;;5027299;28;20037;-73
2021/05/13 13:52:46;;;;;;;5.50;2.67;;;;;;;;;;5027351;28;20132;-72
2021/05/13 13:55:12;;;;;;;9.98;3.10;;;;;;;;;;5028603;28;20121;-72
2021/05/13 13:57:39;;;;;;;6.78;2.90;;;;;;;;;;5025481;28;20104;-72
2021/05/13 14:00:06;;;;;;;4.70;1.80;;;;;;;;;;5012414;28;20045;-72
2021/05/13 14:02:35;;;;;;;4.55;1.60;;;;;;;;;;5026935;28;20033;-73
2021/05/13 14:05:02;;;;;;;6.40;1.90;;;;;;;;;;5029102;28;20136;-73
2021/05/13 14:07:28;;;;;;;4.88;1.60;;;;;;;;;;5009382;28;20037;-73
2021/05/13 14:09:54;;;;;;;3.40;1.30;;;;;;;;;;5021043;28;20401;-73
2021/05/13 14:12:20;;;;;;;4.50;1.60;;;;;;;;;;5026564;28;20107;-73
2021/05/13 14:14:47;;;;;;;4.82;1.50;;;;;;;;;;5025401;28;20102;-73
2021/05/13 14:17:13;;;;;;;5.57;1.60;;;;;;;;;;5024934;28;20053;-73
2021/05/13 14:19:39;;;;;;;6.15;2.00;;;;;;;;;;5025645;28;20041;-73
2021/05/13 14:22:06;;;;;;;7.13;2.60;;;;;;;;;;5010026;28;20040;-73
2021/05/13 14:24:32;;;;;;;12.93;2.05;;;;;;;;;;5025585;28;20042;-73
2021/05/13 14:26:59;;;;;;;5.32;1.67;;;;;;;;;;5010118;28;20044;-74
2021/05/13 14:29:25;;;;;;;5.43;2.28;;;;;;;;;;5026986;28;20049;-74
2021/05/13 14:31:51;;;;;;;5.13;1.70;;;;;;;;;;5026327;28;20144;-73
2021/05/13 14:34:17;;;;;;;5.88;1.85;;;;;;;;;;5028202;28;20095;-72
2021/05/13 14:36:44;;;;;;;3.78;1.70;;;;;;;;;;5026163;28;20037;-73
2021/05/13 14:39:10;;;;;;;5.15;1.92;;;;;;;;;;5011148;28;20042;-72
2021/05/13 14:41:37;;;;;;;8.32;2.50;;;;;;;;;;5025207;28;20184;-72
2021/05/13 14:44:04;;;;;;;5.78;1.95;;;;;;;;;;5026633;28;20045;-72
2021/05/13 14:46:31;;;;;;;5.88;1.98;;;;;;;;;;5010432;28;20049;-72
2021/05/13 14:49:07;;;;;;;5.00;1.92;;;;;;;;;;5008955;28;20125;-72